createdAt,value
2017-11-04T00:01:24.409Z,18.92
2017-11-04T00:03:51.965Z,20.23
2017-11-04T00:06:19.500Z,18.27
2017-11-04T00:08:47.065Z,18.70
2017-11-04T00:11:14.593Z,20.73
2017-11-04T00:13:42.961Z,20.52
2017-11-04T00:16:11.266Z,18.40
2017-11-04T00:18:38.829Z,17.37
2017-11-04T00:21:06.691Z,17.70
2017-11-04T00:23:36.140Z,19.00
2017-11-04T00:26:03.693Z,19.87
2017-11-04T00:28:31.249Z,18.15
2017-11-04T00:30:58.780Z,18.20
2017-11-04T00:33:27.368Z,16.62
2017-11-04T00:35:54.940Z,15.70
2017-11-04T00:38:23.265Z,18.37
2017-11-04T00:40:51.493Z,21.08
2017-11-04T00:43:19.794Z,20.40
2017-11-04T00:45:47.810Z,18.42
2017-11-04T00:48:15.341Z,19.35
2017-11-04T00:50:42.888Z,19.23
2017-11-04T00:53:10.420Z,18.45
2017-11-04T00:55:38.746Z,21.37
2017-11-04T00:58:06.290Z,19.10
2017-11-04T01:00:33.872Z,19.50
2017-11-04T01:03:01.434Z,20.70
2017-11-04T01:05:28.976Z,19.60
2017-11-04T01:07:56.505Z,20.17
2017-11-04T01:10:24.028Z,20.42
2017-11-04T01:12:51.586Z,19.77
2017-11-04T01:15:19.116Z,19.55
2017-11-04T01:17:48.300Z,17.40
2017-11-04T01:20:16.712Z,20.23
2017-11-04T01:22:44.283Z,20.55
2017-11-04T01:25:11.830Z,22.55
2017-11-04T01:27:39.379Z,17.55
2017-11-04T01:30:06.931Z,17.58
2017-11-04T01:32:34.462Z,21.40
2017-11-04T01:35:02.797Z,20.80
2017-11-04T01:37:30.356Z,19.15
2017-11-04T01:39:57.960Z,16.83
2017-11-04T01:42:25.490Z,18.60
2017-11-04T01:44:53.060Z,20.02
2017-11-04T01:47:20.601Z,18.15
2017-11-04T01:49:48.124Z,17.83
2017-11-04T01:52:16.442Z,18.80
2017-11-04T01:54:43.980Z,17.62
2017-11-04T01:57:11.717Z,18.20
2017-11-04T01:59:40.019Z,21.48
2017-11-04T02:02:07.569Z,24.70
2017-11-04T02:04:35.105Z,31.35
2017-11-04T02:07:03.451Z,26.37
2017-11-04T02:09:30.997Z,33.70
2017-11-04T02:11:58.560Z,35.83
2017-11-04T02:14:26.116Z,32.03
2017-11-04T02:16:53.665Z,32.05
2017-11-04T02:19:21.245Z,30.23
2017-11-04T02:21:48.811Z,27.48
2017-11-04T02:24:16.347Z,27.60
2017-11-04T02:26:43.901Z,28.70
2017-11-04T02:29:11.425Z,29.83
2017-11-04T02:31:39.755Z,28.55
2017-11-04T02:34:07.322Z,28.98
2017-11-04T02:36:34.854Z,27.33
2017-11-04T02:39:02.406Z,25.95
2017-11-04T02:41:29.953Z,25.50
2017-11-04T02:43:57.526Z,28.30
2017-11-04T02:46:25.078Z,26.52
2017-11-04T02:48:52.634Z,24.48
2017-11-04T02:51:20.186Z,25.80
2017-11-04T02:53:48.498Z,24.25
2017-11-04T02:56:16.052Z,29.10
2017-11-04T02:58:43.639Z,27.65
2017-11-04T03:01:11.182Z,25.00
2017-11-04T03:03:38.732Z,24.00
2017-11-04T03:06:06.315Z,23.33
2017-11-04T03:08:34.685Z,24.87
2017-11-04T03:11:02.997Z,27.48
2017-11-04T03:13:30.528Z,23.00
2017-11-04T03:15:58.840Z,26.33
2017-11-04T03:18:26.372Z,24.70
2017-11-04T03:20:54.705Z,24.27
2017-11-04T03:23:22.239Z,23.75
2017-11-04T03:25:49.785Z,21.60
2017-11-04T03:28:17.322Z,19.50
2017-11-04T03:30:45.653Z,20.20
2017-11-04T03:33:13.177Z,18.02
2017-11-04T03:35:41.474Z,19.05
2017-11-04T03:38:09.038Z,17.90
2017-11-04T03:40:36.581Z,20.02
2017-11-04T03:43:04.140Z,23.48
2017-11-04T03:45:31.671Z,25.30
2017-11-04T03:47:59.988Z,24.87
2017-11-04T03:50:27.520Z,23.38
2017-11-04T03:52:55.851Z,23.48
2017-11-04T03:55:23.394Z,22.83
2017-11-04T03:57:50.957Z,23.10
2017-11-04T04:00:18.542Z,22.05
2017-11-04T04:02:46.081Z,22.30
2017-11-04T04:05:13.633Z,23.75
2017-11-04T04:07:41.169Z,23.50
2017-11-04T04:10:08.741Z,22.77
2017-11-04T04:12:36.308Z,22.45
2017-11-04T04:15:03.857Z,22.45
2017-11-04T04:17:31.388Z,20.80
2017-11-04T04:19:59.730Z,21.52
2017-11-04T04:22:27.291Z,21.85
2017-11-04T04:24:54.836Z,20.98
2017-11-04T04:27:22.376Z,20.85
2017-11-04T04:29:49.930Z,19.98
2017-11-04T04:32:17.458Z,21.65
2017-11-04T04:34:45.781Z,20.67
2017-11-04T04:37:13.314Z,20.05
2017-11-04T04:39:40.997Z,21.40
2017-11-04T04:42:08.557Z,20.83
2017-11-04T04:44:36.089Z,21.08
2017-11-04T04:47:04.416Z,23.55
2017-11-04T04:49:31.952Z,21.73
2017-11-04T04:51:59.477Z,21.80
2017-11-04T04:54:27.783Z,22.58
2017-11-04T04:56:55.316Z,21.45
2017-11-04T04:59:23.626Z,21.02
2017-11-04T05:01:51.157Z,20.25
2017-11-04T05:04:19.488Z,21.40
2017-11-04T05:06:47.028Z,21.50
2017-11-04T05:09:14.576Z,22.33
2017-11-04T05:11:42.101Z,22.23
2017-11-04T05:14:10.410Z,22.25
2017-11-04T05:16:37.951Z,22.40
2017-11-04T05:19:05.507Z,22.67
2017-11-04T05:21:33.810Z,22.20
2017-11-04T05:24:01.367Z,21.40
2017-11-04T05:26:28.901Z,22.55
2017-11-04T05:28:57.276Z,21.15
2017-11-04T05:31:25.609Z,22.13
2017-11-04T05:33:53.150Z,23.17
2017-11-04T05:36:20.706Z,22.83
2017-11-04T05:38:48.246Z,23.17
2017-11-04T05:41:15.802Z,22.17
2017-11-04T05:43:44.121Z,24.15
2017-11-04T05:46:11.658Z,23.62
2017-11-04T05:48:39.214Z,22.33
2017-11-04T05:51:06.762Z,24.15
2017-11-04T05:53:36.349Z,22.83
2017-11-04T05:56:06.848Z,21.73
2017-11-04T05:58:34.402Z,21.52
2017-11-04T06:01:01.965Z,22.00
2017-11-04T06:03:29.498Z,22.75
2017-11-04T06:05:57.044Z,23.58
2017-11-04T06:08:24.592Z,24.15
2017-11-04T06:10:52.132Z,23.75
2017-11-04T06:13:20.460Z,22.83
2017-11-04T06:15:48.122Z,23.87
2017-11-04T06:18:15.681Z,22.85
2017-11-04T06:20:43.242Z,23.40
2017-11-04T06:23:10.797Z,23.33
2017-11-04T06:25:38.363Z,23.00
2017-11-04T06:28:05.924Z,20.80
2017-11-04T06:30:33.587Z,23.95
2017-11-04T06:33:01.248Z,23.55
2017-11-04T06:35:28.822Z,24.85
2017-11-04T06:37:56.393Z,25.45
2017-11-04T06:40:23.948Z,21.52
2017-11-04T06:42:51.498Z,21.52
2017-11-04T06:45:19.052Z,21.08
2017-11-04T06:47:46.618Z,21.85
2017-11-04T06:50:14.170Z,22.75
2017-11-04T06:52:41.714Z,21.20
2017-11-04T06:55:09.242Z,21.27
2017-11-04T06:57:37.559Z,22.23
2017-11-04T07:00:05.097Z,23.17
2017-11-04T07:02:32.648Z,21.55
2017-11-04T07:05:00.957Z,21.55
2017-11-04T07:07:28.485Z,23.30
2017-11-04T07:09:56.795Z,24.20
2017-11-04T07:12:24.324Z,20.92
2017-11-04T07:14:51.894Z,21.95
2017-11-04T07:17:19.417Z,22.50
2017-11-04T07:19:47.013Z,21.00
2017-11-04T07:22:14.545Z,22.20
2017-11-04T07:24:42.098Z,20.83
2017-11-04T07:27:09.641Z,20.30
2017-11-04T07:29:38.126Z,20.15
2017-11-04T07:32:06.425Z,22.95
2017-11-04T07:34:33.986Z,20.20
2017-11-04T07:37:01.571Z,21.00
2017-11-04T07:39:29.101Z,21.58
2017-11-04T07:41:59.498Z,23.05
2017-11-04T07:44:27.027Z,20.67
2017-11-04T07:46:54.635Z,20.02
2017-11-04T07:49:22.182Z,20.17
2017-11-04T07:51:50.494Z,20.15
2017-11-04T07:54:18.031Z,20.95
2017-11-04T07:56:46.354Z,20.02
2017-11-04T07:59:13.911Z,20.62
2017-11-04T08:01:41.560Z,20.20
2017-11-04T08:04:09.084Z,20.65
2017-11-04T08:06:37.396Z,20.88
2017-11-04T08:09:04.929Z,20.27
2017-11-04T08:11:33.252Z,19.45
2017-11-04T08:14:00.776Z,19.15
2017-11-04T08:16:28.302Z,17.62
2017-11-04T08:18:56.657Z,17.50
2017-11-04T08:21:24.214Z,15.90
2017-11-04T08:23:51.839Z,16.92
2017-11-04T08:26:19.501Z,16.62
2017-11-04T08:28:47.053Z,16.10
2017-11-04T08:31:14.612Z,15.30
2017-11-04T08:33:42.173Z,15.10
2017-11-04T08:36:10.055Z,15.98
2017-11-04T08:38:37.628Z,15.52
2017-11-04T08:41:06.165Z,15.30
2017-11-04T08:43:34.489Z,13.50
2017-11-04T08:46:02.058Z,14.60
2017-11-04T08:48:29.620Z,13.20
2017-11-04T08:50:59.048Z,12.70
2017-11-04T08:53:26.631Z,12.13
2017-11-04T08:55:54.181Z,14.57
2017-11-04T08:58:22.520Z,13.60
2017-11-04T09:00:50.176Z,13.75
2017-11-04T09:03:17.723Z,13.98
2017-11-04T09:05:45.284Z,14.35
2017-11-04T09:08:12.861Z,13.30
2017-11-04T09:10:40.410Z,14.30
2017-11-04T09:13:07.949Z,13.30
2017-11-04T09:15:35.512Z,12.37
2017-11-04T09:18:03.180Z,12.10
2017-11-04T09:20:30.721Z,12.33
2017-11-04T09:22:58.801Z,13.77
2017-11-04T09:25:26.362Z,13.10
2017-11-04T09:27:53.908Z,12.20
2017-11-04T09:30:21.491Z,13.15
2017-11-04T09:32:49.034Z,13.00
2017-11-04T09:35:16.633Z,13.17
2017-11-04T09:37:44.978Z,13.77
2017-11-04T09:40:12.549Z,11.93
2017-11-04T09:42:40.150Z,14.20
2017-11-04T09:45:07.715Z,13.80
2017-11-04T09:47:35.294Z,12.30
2017-11-04T09:50:02.886Z,13.73
2017-11-04T09:52:32.408Z,13.60
2017-11-04T09:54:59.941Z,12.90
2017-11-04T09:57:27.646Z,13.80
2017-11-04T09:59:55.251Z,13.03
2017-11-04T10:02:22.837Z,12.77
2017-11-04T10:04:50.408Z,13.10
2017-11-04T10:07:17.958Z,13.30
2017-11-04T10:09:45.539Z,13.53
2017-11-04T10:12:13.140Z,14.20
2017-11-04T10:14:40.737Z,12.70
2017-11-04T10:17:09.059Z,13.87
2017-11-04T10:19:36.667Z,13.03
2017-11-04T10:22:04.966Z,11.87
2017-11-04T10:24:32.525Z,11.53
2017-11-04T10:27:00.057Z,12.00
2017-11-04T10:29:28.379Z,12.17
2017-11-04T10:31:55.976Z,10.87
2017-11-04T10:34:23.547Z,10.77
2017-11-04T10:36:51.871Z,10.60
2017-11-04T10:39:19.456Z,10.57
2017-11-04T10:41:46.997Z,10.83
2017-11-04T10:44:14.597Z,10.67
2017-11-04T10:46:42.132Z,10.43
2017-11-04T10:49:09.884Z,10.67
2017-11-04T10:51:37.512Z,11.67
2017-11-04T10:54:05.050Z,9.97
2017-11-04T10:56:33.525Z,10.50
2017-11-04T10:59:01.221Z,11.27
2017-11-04T11:01:28.797Z,10.10
2017-11-04T11:03:56.349Z,9.20
2017-11-04T11:06:23.908Z,10.53
2017-11-04T11:08:51.461Z,10.53
2017-11-04T11:11:19.017Z,10.50
2017-11-04T11:13:46.585Z,10.30
2017-11-04T11:16:14.121Z,10.67
2017-11-04T11:18:41.716Z,10.47
2017-11-04T11:21:09.264Z,10.73
2017-11-04T11:23:36.817Z,9.60
2017-11-04T11:26:04.347Z,9.97
2017-11-04T11:28:32.668Z,9.73
2017-11-04T11:31:00.213Z,10.13
2017-11-04T11:33:27.773Z,10.40
2017-11-04T11:35:55.330Z,9.70
2017-11-04T11:38:22.897Z,9.27
2017-11-04T11:40:50.433Z,9.87
2017-11-04T11:43:17.973Z,10.53
2017-11-04T11:45:46.305Z,10.83
2017-11-04T11:48:13.865Z,11.00
2017-11-04T11:50:41.434Z,9.40
2017-11-04T11:53:08.992Z,9.40
2017-11-04T11:55:36.565Z,9.33
2017-11-04T11:58:04.124Z,10.47
2017-11-04T12:00:31.682Z,9.00
2017-11-04T12:02:59.231Z,9.03
2017-11-04T12:05:26.829Z,9.80
2017-11-04T12:07:55.132Z,8.73
2017-11-04T12:10:22.692Z,9.23
2017-11-04T12:12:50.249Z,9.03
2017-11-04T12:15:17.781Z,9.57
2017-11-04T12:17:45.347Z,9.10
2017-11-04T12:20:13.650Z,8.40
2017-11-04T12:22:41.210Z,8.40
2017-11-04T12:25:08.763Z,9.60
2017-11-04T12:27:36.348Z,9.73
2017-11-04T12:30:04.013Z,9.90
2017-11-04T12:32:31.673Z,10.63
2017-11-04T12:34:59.350Z,9.33
2017-11-04T12:37:27.099Z,9.30
2017-11-04T12:39:54.737Z,8.97
2017-11-04T12:42:22.287Z,8.30
2017-11-04T12:44:50.613Z,9.10
2017-11-04T12:47:18.148Z,8.60
2017-11-04T12:49:45.693Z,8.97
2017-11-04T12:52:13.279Z,8.67
2017-11-04T12:54:40.816Z,9.07
2017-11-04T12:57:08.395Z,7.43
2017-11-04T12:59:35.930Z,6.70
2017-11-04T13:02:04.249Z,7.47
2017-11-04T13:04:31.794Z,7.30
2017-11-04T13:06:59.363Z,6.90
2017-11-04T13:09:27.017Z,5.70
2017-11-04T13:11:54.544Z,6.00
2017-11-04T13:14:22.864Z,5.30
2017-11-04T13:16:50.407Z,5.60
2017-11-04T13:19:18.075Z,4.90
2017-11-04T13:21:45.638Z,5.30
2017-11-04T13:24:13.213Z,5.90
2017-11-04T13:26:41.564Z,4.83
2017-11-04T13:29:10.619Z,5.10
2017-11-04T13:31:38.222Z,5.20
2017-11-04T13:34:05.775Z,5.03
2017-11-04T13:36:34.088Z,4.37
2017-11-04T13:39:02.427Z,4.50
2017-11-04T13:41:29.977Z,3.90
2017-11-04T13:43:58.276Z,4.83
2017-11-04T13:46:25.947Z,4.20
2017-11-04T13:48:53.489Z,4.10
2017-11-04T13:51:21.058Z,3.77
2017-11-04T13:53:48.582Z,3.90
2017-11-04T13:56:16.901Z,4.60
2017-11-04T13:58:44.445Z,4.30
2017-11-04T14:01:12.023Z,4.40
2017-11-04T14:03:39.574Z,5.53
2017-11-04T14:06:07.893Z,3.60
2017-11-04T14:08:35.442Z,4.23
2017-11-04T14:11:02.995Z,5.00
2017-11-04T14:13:30.537Z,3.60
2017-11-04T14:15:58.833Z,4.67
2017-11-04T14:18:26.389Z,3.73
2017-11-04T14:20:53.916Z,4.03
2017-11-04T14:23:21.506Z,4.20
2017-11-04T14:25:49.814Z,4.63
2017-11-04T14:28:17.354Z,5.20
2017-11-04T14:30:45.681Z,3.73
2017-11-04T14:33:13.978Z,6.33
2017-11-04T14:35:41.525Z,5.23
2017-11-04T14:38:09.077Z,4.03
2017-11-04T14:40:37.404Z,3.93
2017-11-04T14:43:05.029Z,4.13
2017-11-04T14:45:32.593Z,4.03
2017-11-04T14:48:00.172Z,3.90
2017-11-04T14:50:27.704Z,3.80
2017-11-04T14:52:56.034Z,4.23
2017-11-04T14:55:23.675Z,4.60
2017-11-04T14:57:51.244Z,4.37
2017-11-04T15:00:18.784Z,3.93
2017-11-04T15:02:46.353Z,4.00
2017-11-04T15:05:13.901Z,4.30
2017-11-04T15:07:41.465Z,3.87
2017-11-04T15:10:09.013Z,3.70
2017-11-04T15:12:36.567Z,4.10
2017-11-04T15:15:04.897Z,4.70
2017-11-04T15:17:32.446Z,4.03
2017-11-04T15:20:00.090Z,4.20
2017-11-04T15:22:27.629Z,4.03
2017-11-04T15:24:55.390Z,3.83
2017-11-04T15:27:22.961Z,4.77
2017-11-04T15:29:50.501Z,4.10
2017-11-04T15:32:18.063Z,4.60
2017-11-04T15:34:45.612Z,4.43
2017-11-04T15:37:13.949Z,4.17
2017-11-04T15:39:41.506Z,3.57
2017-11-04T15:42:09.064Z,5.33
2017-11-04T15:44:36.604Z,4.70
2017-11-04T15:47:04.169Z,4.80
2017-11-04T15:49:31.762Z,4.70
2017-11-04T15:52:00.078Z,4.97
2017-11-04T15:54:27.670Z,5.00
2017-11-04T15:56:55.235Z,4.47
2017-11-04T15:59:22.783Z,4.63
2017-11-04T16:01:50.334Z,4.90
2017-11-04T16:04:17.865Z,4.40
2017-11-04T16:06:45.426Z,4.70
2017-11-04T16:09:12.974Z,4.87
2017-11-04T16:11:40.556Z,5.27
2017-11-04T16:14:08.098Z,4.60
2017-11-04T16:16:35.649Z,4.30
2017-11-04T16:19:03.193Z,5.10
2017-11-04T16:21:31.518Z,7.03
2017-11-04T16:23:59.070Z,5.57
2017-11-04T16:26:26.652Z,5.18
2017-11-04T16:28:54.221Z,4.72
2017-11-04T16:31:21.768Z,5.90
2017-11-04T16:33:49.340Z,6.15
2017-11-04T16:36:16.917Z,7.10
2017-11-04T16:38:44.482Z,5.83
2017-11-04T16:41:12.025Z,6.62
2017-11-04T16:43:39.598Z,6.05
2017-11-04T16:46:07.922Z,5.65
2017-11-04T16:48:35.494Z,6.32
2017-11-04T16:51:03.081Z,6.85
2017-11-04T16:53:30.625Z,6.13
2017-11-04T16:55:58.188Z,6.45
2017-11-04T16:58:25.755Z,6.45
2017-11-04T17:00:53.305Z,6.47
2017-11-04T17:03:20.869Z,8.30
2017-11-04T17:05:48.433Z,6.60
2017-11-04T17:08:15.997Z,7.55
2017-11-04T17:10:43.534Z,8.20
2017-11-04T17:13:11.081Z,7.18
2017-11-04T17:15:38.656Z,7.50
2017-11-04T17:18:06.202Z,7.03
2017-11-04T17:20:33.760Z,7.15
2017-11-04T17:23:01.322Z,6.75
2017-11-04T17:25:28.874Z,6.93
2017-11-04T17:27:56.426Z,8.70
2017-11-04T17:30:23.993Z,8.40
2017-11-04T17:32:51.552Z,7.85
2017-11-04T17:35:19.121Z,8.10
2017-11-04T17:37:46.691Z,8.30
2017-11-04T17:40:14.247Z,8.02
2017-11-04T17:42:41.810Z,9.25
2017-11-04T17:45:09.349Z,8.27
2017-11-04T17:47:36.922Z,8.60
2017-11-04T17:50:04.460Z,8.05
2017-11-04T17:52:32.029Z,8.27
2017-11-04T17:54:59.566Z,9.15
2017-11-04T17:57:27.989Z,8.20
2017-11-04T17:59:55.548Z,8.68
2017-11-04T18:02:23.110Z,9.45
2017-11-04T18:04:50.672Z,9.55
2017-11-04T18:07:18.222Z,10.15
2017-11-04T18:09:45.763Z,8.65
2017-11-04T18:12:13.298Z,8.90
2017-11-04T18:14:41.624Z,8.98
2017-11-04T18:17:09.160Z,9.68
2017-11-04T18:19:36.751Z,8.30
2017-11-04T18:22:04.290Z,9.07
2017-11-04T18:24:31.849Z,8.20
2017-11-04T18:26:59.413Z,8.27
2017-11-04T18:29:26.979Z,8.38
2017-11-04T18:31:54.526Z,10.32
2017-11-04T18:34:22.215Z,10.25
2017-11-04T18:36:49.775Z,9.03
2017-11-04T18:39:18.290Z,12.35
2017-11-04T18:41:45.859Z,9.98
2017-11-04T18:44:13.415Z,9.95
2017-11-04T18:46:40.988Z,10.15
2017-11-04T18:49:09.292Z,9.77
2017-11-04T18:51:36.868Z,10.43
2017-11-04T18:54:04.798Z,10.60
2017-11-04T18:56:33.252Z,9.95
2017-11-04T18:59:01.104Z,12.15
2017-11-04T19:01:28.679Z,12.43
2017-11-04T19:03:56.275Z,11.80
2017-11-04T19:06:23.821Z,11.00
2017-11-04T19:08:52.182Z,11.63
2017-11-04T19:11:20.537Z,11.23
2017-11-04T19:13:48.079Z,13.00
2017-11-04T19:16:15.743Z,12.43
2017-11-04T19:18:43.297Z,11.80
2017-11-04T19:21:10.889Z,11.88
2017-11-04T19:23:39.228Z,11.60
2017-11-04T19:26:06.788Z,11.27
2017-11-04T19:28:34.379Z,11.48
2017-11-04T19:31:02.685Z,13.05
2017-11-04T19:33:30.249Z,11.80
2017-11-04T19:35:57.802Z,12.00
2017-11-04T19:38:25.365Z,12.73
2017-11-04T19:40:52.929Z,11.88
2017-11-04T19:43:20.502Z,11.45
2017-11-04T19:45:48.056Z,11.57
2017-11-04T19:48:15.622Z,10.95
2017-11-04T19:50:43.195Z,14.07
2017-11-04T19:53:10.762Z,14.00
2017-11-04T19:55:38.629Z,15.50
2017-11-04T19:58:06.197Z,17.62
2017-11-04T20:00:33.767Z,17.80
2017-11-04T20:03:01.321Z,17.30
2017-11-04T20:05:28.877Z,15.90
2017-11-04T20:07:56.416Z,15.50
2017-11-04T20:10:23.979Z,13.82
2017-11-04T20:12:51.522Z,13.50
2017-11-04T20:15:19.096Z,13.75
2017-11-04T20:17:46.633Z,14.57
2017-11-04T20:20:14.204Z,15.10
2017-11-04T20:22:41.741Z,12.70
2017-11-04T20:25:09.301Z,14.77
2017-11-04T20:27:36.937Z,12.40
2017-11-04T20:30:04.485Z,14.13
2017-11-04T20:32:32.159Z,16.40
2017-11-04T20:34:59.721Z,15.30
2017-11-04T20:37:27.285Z,16.58
2017-11-04T20:39:54.818Z,14.77
2017-11-04T20:42:22.381Z,14.23
2017-11-04T20:44:49.917Z,15.18
2017-11-04T20:47:18.237Z,15.05
2017-11-04T20:49:45.796Z,13.30
2017-11-04T20:52:13.350Z,14.43
2017-11-04T20:54:40.906Z,13.57
2017-11-04T20:57:08.459Z,12.80
2017-11-04T20:59:35.994Z,13.15
2017-11-04T21:02:04.293Z,14.85
2017-11-04T21:04:31.859Z,14.77
2017-11-04T21:06:59.415Z,14.85
2017-11-04T21:09:26.981Z,14.13
2017-11-04T21:11:54.540Z,14.82
2017-11-04T21:14:22.094Z,14.75
2017-11-04T21:16:49.689Z,14.38
2017-11-04T21:19:17.250Z,14.20
2017-11-04T21:21:44.774Z,14.52
2017-11-04T21:24:12.351Z,15.25
2017-11-04T21:26:39.934Z,15.38
2017-11-04T21:29:07.499Z,16.55
2017-11-04T21:31:35.052Z,17.92
2017-11-04T21:34:02.629Z,15.50
2017-11-04T21:36:30.193Z,14.77
2017-11-04T21:38:57.762Z,17.42
2017-11-04T21:41:25.313Z,14.93
2017-11-04T21:43:52.912Z,15.55
2017-11-04T21:46:21.600Z,19.65
2017-11-04T21:48:49.176Z,15.80
2017-11-04T21:51:16.745Z,15.90
2017-11-04T21:53:44.281Z,15.55
2017-11-04T21:56:12.720Z,13.98
2017-11-04T21:58:40.257Z,14.23
2017-11-04T22:01:07.993Z,15.55
2017-11-04T22:03:35.556Z,14.10
2017-11-04T22:06:03.112Z,15.20
2017-11-04T22:08:30.675Z,14.95
2017-11-04T22:10:58.246Z,15.88
2017-11-04T22:13:26.574Z,16.50
2017-11-04T22:15:54.131Z,15.25
2017-11-04T22:18:21.766Z,15.02
2017-11-04T22:20:50.089Z,15.15
2017-11-04T22:23:17.689Z,14.93
2017-11-04T22:25:45.256Z,15.65
2017-11-04T22:28:12.855Z,15.45
2017-11-04T22:30:40.398Z,17.95
2017-11-04T22:33:08.793Z,17.08
2017-11-04T22:35:36.332Z,16.85
2017-11-04T22:38:03.914Z,15.73
2017-11-04T22:40:31.470Z,15.48
2017-11-04T22:42:59.076Z,13.73
2017-11-04T22:45:26.612Z,14.65
2017-11-04T22:47:54.149Z,15.32
2017-11-04T22:50:21.704Z,13.20
2017-11-04T22:52:50.009Z,14.38
2017-11-04T22:55:17.670Z,17.08
2017-11-04T22:57:45.214Z,12.20
2017-11-04T23:00:12.777Z,13.82
2017-11-04T23:02:40.556Z,13.30
2017-11-04T23:05:08.114Z,15.30
2017-11-04T23:07:36.416Z,12.25
2017-11-04T23:10:04.070Z,13.10
2017-11-04T23:12:32.418Z,13.48
2017-11-04T23:14:59.965Z,12.18
2017-11-04T23:17:27.523Z,12.80
2017-11-04T23:19:55.068Z,11.77
2017-11-04T23:22:22.751Z,13.02
2017-11-04T23:24:50.242Z,13.30
2017-11-04T23:27:17.759Z,13.52
2017-11-04T23:29:45.251Z,13.05
2017-11-04T23:32:12.728Z,12.45
2017-11-04T23:34:41.051Z,11.25
2017-11-04T23:37:09.317Z,13.43
2017-11-04T23:39:36.832Z,11.25
2017-11-04T23:42:04.310Z,14.07
2017-11-04T23:44:31.812Z,11.38
2017-11-04T23:47:00.083Z,11.50
2017-11-04T23:49:28.349Z,14.80
2017-11-04T23:51:56.589Z,13.60
2017-11-04T23:54:24.117Z,13.30
2017-11-04T23:56:51.660Z,13.57
2017-11-04T23:59:19.229Z,11.15
